Time;durP1;ratioP1;P1;durP2;ratioP2;P2;SDS_P1;SDS_P2;PMS_P1;PMS_P2;Temp;Humidity;BMP_temperature;BMP_pressure;BME280_temperature;BME280_humidity;BME280_pressure;Samples;Min_cycle;Max_cycle;Signal;HPM_P1;HPM_P2
2024/02/20 00:00:07;;;;;;;6.90;4.47;;;5.30;70.20;;;;;;5073250;28;20032;-74
2024/02/20 00:02:33;;;;;;;10.23;5.10;;;5.30;70.70;;;;;;5072630;28;20397;-70
2024/02/20 00:04:59;;;;;;;8.85;4.05;;;5.30;71.30;;;;;;5072798;28;20056;-71
2024/02/20 00:07:25;;;;;;;;;;;5.30;71.40;;;;;;5073156;28;20036;-74
2024/02/20 00:09:51;;;;;;;11.35;4.07;;;5.30;71.40;;;;;;5072608;28;19912;-73
2024/02/20 00:12:17;;;;;;;7.70;4.70;;;5.20;71.80;;;;;;5073307;28;20036;-70
2024/02/20 00:14:43;;;;;;;6.15;4.97;;;5.20;72.30;;;;;;5072583;28;20546;-70
2024/02/20 00:17:10;;;;;;;10.20;3.75;;;5.20;71.70;;;;;;5055654;28;20098;-72
2024/02/20 00:19:36;;;;;;;8.10;4.97;;;5.20;71.50;;;;;;5073617;28;20489;-74
2024/02/20 00:22:02;;;;;;;12.93;5.43;;;5.10;71.30;;;;;;5071597;28;20119;-70
2024/02/20 00:24:28;;;;;;;;;;;5.10;71.60;;;;;;5072888;28;20118;-73
2024/02/20 00:26:55;;;;;;;8.68;4.35;;;5.10;71.60;;;;;;5072523;28;19928;-70
2024/02/20 00:29:21;;;;;;;7.95;3.75;;;5.10;71.60;;;;;;5073903;28;20032;-74
2024/02/20 00:31:47;;;;;;;4.65;2.70;;;5.10;71.70;;;;;;5071920;28;20037;-70
2024/02/20 00:34:14;;;;;;;9.70;4.75;;;5.00;71.70;;;;;;5072546;28;20028;-74
2024/02/20 00:36:40;;;;;;;;;;;5.00;71.50;;;;;;5074470;28;20044;-74
2024/02/20 00:39:07;;;;;;;8.80;5.18;;;4.90;71.40;;;;;;5055549;28;19969;-73
2024/02/20 00:41:33;;;;;;;14.85;6.47;;;4.90;71.10;;;;;;5073015;28;20037;-74
2024/02/20 00:43:59;;;;;;;5.20;3.58;;;4.90;70.80;;;;;;5073441;28;20033;-70
2024/02/20 00:46:25;;;;;;;9.32;4.68;;;4.80;70.60;;;;;;5072127;28;20075;-70
2024/02/20 00:48:51;;;;;;;8.07;3.38;;;4.80;70.50;;;;;;5073335;28;20028;-70
2024/02/20 00:51:19;;;;;;;5.47;3.92;;;4.80;70.70;;;;;;5072875;28;20033;-74
2024/02/20 00:53:46;;;;;;;7.50;5.15;;;4.70;70.30;;;;;;5073162;28;20060;-71
2024/02/20 00:56:12;;;;;;;8.02;5.10;;;4.70;70.30;;;;;;5072937;28;20082;-74
2024/02/20 00:58:39;;;;;;;8.13;5.32;;;4.70;70.50;;;;;;5073113;28;20425;-74
2024/02/20 01:01:10;;;;;;;7.22;3.90;;;4.70;70.40;;;;;;5070984;28;20067;-73
2024/02/20 01:03:37;;;;;;;11.38;3.72;;;4.70;70.20;;;;;;5072815;28;20098;-71
2024/02/20 01:06:05;;;;;;;5.80;4.25;;;4.60;70.10;;;;;;5071889;28;20032;-74
2024/02/20 01:08:31;;;;;;;8.43;3.88;;;4.60;69.90;;;;;;5073473;28;20048;-71
2024/02/20 01:10:57;;;;;;;5.65;4.53;;;4.60;70.00;;;;;;5072442;28;20490;-73
2024/02/20 01:13:23;;;;;;;6.10;3.05;;;4.60;69.90;;;;;;5073212;28;20094;-71
2024/02/20 01:15:49;;;;;;;5.80;3.63;;;4.60;69.70;;;;;;5071680;28;20044;-73
2024/02/20 01:18:15;;;;;;;8.63;5.47;;;4.60;69.60;;;;;;5073142;28;20036;-71
2024/02/20 01:20:41;;;;;;;3.90;2.90;;;4.50;69.50;;;;;;5071005;28;20058;-71
2024/02/20 01:23:07;;;;;;;5.70;3.67;;;4.50;69.60;;;;;;5070934;28;20041;-74
2024/02/20 01:25:33;;;;;;;9.00;3.55;;;4.50;69.60;;;;;;5073152;28;20032;-73
2024/02/20 01:28:01;;;;;;;9.88;4.80;;;4.40;69.60;;;;;;5072775;28;20036;-74
2024/02/20 01:30:27;;;;;;;6.40;3.03;;;4.40;69.90;;;;;;5053966;28;20099;-73
2024/02/20 01:32:57;;;;;;;6.60;4.20;;;4.40;69.90;;;;;;5072483;28;20428;-71
2024/02/20 01:35:24;;;;;;;12.75;6.85;;;4.40;70.20;;;;;;5072235;28;20036;-74
2024/02/20 01:37:50;;;;;;;6.85;4.97;;;4.30;70.50;;;;;;5072345;28;20094;-74
2024/02/20 01:40:16;;;;;;;6.25;5.32;;;4.30;71.10;;;;;;5053458;28;20025;-71
2024/02/20 01:42:43;;;;;;;5.97;3.20;;;4.20;70.50;;;;;;5072257;28;20040;-74
2024/02/20 01:45:10;;;;;;;5.70;3.70;;;4.30;71.20;;;;;;5071009;28;20047;-74
2024/02/20 01:47:37;;;;;;;9.52;4.32;;;4.20;70.70;;;;;;5072000;28;20049;-71
2024/02/20 01:50:04;;;;;;;10.20;4.45;;;4.30;71.20;;;;;;5053680;28;20366;-74
2024/02/20 01:52:31;;;;;;;10.48;4.38;;;4.30;70.50;;;;;;5054294;28;20068;-73
2024/02/20 01:55:01;;;;;;;13.48;5.05;;;4.30;71.20;;;;;;5054077;28;20298;-70
2024/02/20 01:57:27;;;;;;;6.30;2.70;;;4.20;70.40;;;;;;5072083;28;20162;-70
2024/02/20 01:59:55;;;;;;;7.43;4.30;;;4.10;70.40;;;;;;5053719;28;20024;-72
2024/02/20 02:02:21;;;;;;;5.28;3.35;;;4.00;70.50;;;;;;5071004;28;20397;-74
2024/02/20 02:04:47;;;;;;;5.40;2.60;;;3.90;70.50;;;;;;5072059;28;20497;-71
2024/02/20 02:07:13;;;;;;;5.85;4.00;;;3.90;70.50;;;;;;5071855;28;20134;-71
2024/02/20 02:09:39;;;;;;;6.55;4.18;;;3.90;70.30;;;;;;5070252;28;20146;-71
2024/02/20 02:12:05;;;;;;;6.93;4.63;;;3.90;70.20;;;;;;5071021;28;20488;-70
2024/02/20 02:14:31;;;;;;;5.97;3.65;;;3.80;70.20;;;;;;5072010;28;20040;-74
2024/02/20 02:16:57;;;;;;;5.35;3.33;;;3.80;70.10;;;;;;5071725;28;20551;-74
2024/02/20 02:19:23;;;;;;;4.38;2.97;;;3.80;70.20;;;;;;5070347;28;20032;-70
2024/02/20 02:21:49;;;;;;;7.15;3.40;;;3.80;70.20;;;;;;5070895;28;20078;-73
2024/02/20 02:24:15;;;;;;;5.90;3.20;;;3.80;70.10;;;;;;5070468;28;20082;-71
2024/02/20 02:26:41;;;;;;;6.13;3.03;;;3.80;70.00;;;;;;5071660;28;20393;-71
2024/02/20 02:29:07;;;;;;;11.07;3.75;;;3.80;69.90;;;;;;5070093;28;20082;-71
2024/02/20 02:31:33;;;;;;;4.88;3.47;;;3.70;70.00;;;;;;5069958;28;20105;-71
2024/02/20 02:33:59;;;;;;;4.50;3.08;;;3.70;70.20;;;;;;5070145;28;20043;-71
2024/02/20 02:36:25;;;;;;;4.13;3.17;;;3.70;70.20;;;;;;5070045;28;20032;-71
2024/02/20 02:38:53;;;;;;;6.75;4.47;;;3.70;70.00;;;;;;5053045;28;20032;-74
2024/02/20 02:41:21;;;;;;;8.55;4.60;;;3.60;70.00;;;;;;5070797;28;20397;-74
2024/02/20 02:43:48;;;;;;;10.00;5.18;;;3.60;70.20;;;;;;5071525;28;20043;-71
2024/02/20 02:46:14;;;;;;;10.38;5.85;;;3.60;70.30;;;;;;5053744;28;20478;-73
2024/02/20 02:48:40;;;;;;;8.27;4.72;;;3.60;70.30;;;;;;5070544;28;20251;-74
2024/02/20 02:51:08;;;;;;;6.43;3.92;;;3.60;71.00;;;;;;5070588;28;20401;-70
2024/02/20 02:53:35;;;;;;;4.43;3.20;;;3.60;70.30;;;;;;5071506;28;20039;-70
2024/02/20 02:56:01;;;;;;;4.82;3.80;;;3.50;70.30;;;;;;5069872;28;20094;-73
2024/02/20 02:58:27;;;;;;;6.93;4.13;;;3.60;70.50;;;;;;5071495;28;20115;-70
2024/02/20 03:00:53;;;;;;;7.47;3.83;;;3.50;70.10;;;;;;5070794;28;20032;-70
2024/02/20 03:03:19;;;;;;;4.45;3.25;;;3.50;69.70;;;;;;5069647;28;20513;-74
2024/02/20 03:05:46;;;;;;;7.88;3.40;;;3.50;69.70;;;;;;5071196;28;20529;-70
2024/02/20 03:08:12;;;;;;;5.60;3.10;;;3.50;69.80;;;;;;5071383;28;20060;-71
2024/02/20 03:10:38;;;;;;;4.93;3.50;;;3.40;69.70;;;;;;5070592;28;20431;-74
2024/02/20 03:13:04;;;;;;;7.35;4.10;;;3.40;70.50;;;;;;5053073;28;20032;-70
2024/02/20 03:15:30;;;;;;;8.80;3.60;;;3.40;69.90;;;;;;5070921;28;20082;-70
2024/02/20 03:17:56;;;;;;;7.15;4.05;;;3.40;70.10;;;;;;5071442;28;20068;-70
2024/02/20 03:20:22;;;;;;;7.93;4.38;;;3.30;70.40;;;;;;5069539;28;20033;-71
2024/02/20 03:22:48;;;;;;;6.97;3.85;;;3.40;70.50;;;;;;5053014;28;20036;-70
2024/02/20 03:25:14;;;;;;;8.65;3.47;;;3.40;70.60;;;;;;5069829;28;20032;-72
2024/02/20 03:27:41;;;;;;;4.75;2.45;;;3.40;70.60;;;;;;5071333;28;20501;-71
2024/02/20 03:30:07;;;;;;;;;;;3.40;70.70;;;;;;5053177;28;20028;-71
2024/02/20 03:32:33;;;;;;;7.28;4.55;;;3.40;69.80;;;;;;5069722;28;20181;-71
2024/02/20 03:35:00;;;;;;;5.30;2.67;;;3.40;70.70;;;;;;5069409;28;20033;-74
2024/02/20 03:37:26;;;;;;;;;;;3.40;70.70;;;;;;5069910;28;20476;-71
2024/02/20 03:39:52;;;;;;;3.38;2.38;;;3.50;70.50;;;;;;5069364;28;20034;-73
2024/02/20 03:42:18;;;;;;;5.10;3.55;;;3.50;70.50;;;;;;5070205;28;20490;-73
2024/02/20 03:44:44;;;;;;;6.05;3.17;;;3.50;70.40;;;;;;5070591;28;20035;-71
2024/02/20 03:47:10;;;;;;;6.43;2.90;;;3.60;70.70;;;;;;5072365;28;20106;-70
2024/02/20 03:49:36;;;;;;;6.53;4.55;;;3.60;70.60;;;;;;5073156;28;20509;-70
2024/02/20 03:52:02;;;;;;;5.03;3.30;;;3.70;70.40;;;;;;5073844;28;20053;-73
2024/02/20 03:54:28;;;;;;;4.22;3.17;;;3.70;70.30;;;;;;5074516;28;20039;-71
2024/02/20 03:56:54;;;;;;;7.57;3.80;;;3.80;70.20;;;;;;5073125;28;20048;-71
2024/02/20 03:59:20;;;;;;;3.88;3.13;;;3.80;70.00;;;;;;5073818;28;20086;-71
2024/02/20 04:01:46;;;;;;;4.85;2.55;;;3.80;69.80;;;;;;5072459;28;20450;-73
2024/02/20 04:04:13;;;;;;;5.85;3.80;;;3.80;69.40;;;;;;5073894;28;20044;-71
2024/02/20 04:06:39;;;;;;;6.30;3.50;;;3.80;69.60;;;;;;5072779;28;20055;-71
2024/02/20 04:09:05;;;;;;;6.30;3.42;;;3.80;69.70;;;;;;5072688;28;20029;-72
2024/02/20 04:11:31;;;;;;;5.68;2.60;;;3.80;69.20;;;;;;5072052;28;20083;-73
2024/02/20 04:13:58;;;;;;;8.68;3.40;;;3.60;69.00;;;;;;5072332;28;20032;-71
2024/02/20 04:16:24;;;;;;;8.75;3.58;;;3.60;69.60;;;;;;5072378;28;20552;-70
2024/02/20 04:18:50;;;;;;;10.35;4.85;;;3.60;69.70;;;;;;5072599;28;20481;-70
2024/02/20 04:21:16;;;;;;;6.43;2.88;;;3.60;70.10;;;;;;5072061;28;20041;-73
2024/02/20 04:23:42;;;;;;;5.00;3.17;;;3.60;70.00;;;;;;5073891;28;20043;-70
2024/02/20 04:26:08;;;;;;;8.30;4.72;;;3.70;70.00;;;;;;5072897;28;20028;-74
2024/02/20 04:28:37;;;;;;;6.10;4.55;;;3.70;69.90;;;;;;5074240;28;20086;-74
2024/02/20 04:31:03;;;;;;;6.75;4.75;;;3.70;70.60;;;;;;5071959;28;20411;-71
2024/02/20 04:33:30;;;;;;;5.55;4.28;;;3.70;71.00;;;;;;5073883;28;20635;-70
2024/02/20 04:35:56;;;;;;;18.30;5.95;;;3.70;70.70;;;;;;5072316;28;20036;-71
2024/02/20 04:38:22;;;;;;;10.85;6.45;;;3.80;70.70;;;;;;5073663;28;20044;-70
2024/02/20 04:40:49;;;;;;;9.00;4.15;;;3.80;71.70;;;;;;5071321;28;20040;-70
2024/02/20 04:43:16;;;;;;;11.60;3.97;;;3.70;71.80;;;;;;5071809;28;20033;-71
2024/02/20 04:45:42;;;;;;;9.18;4.00;;;3.60;71.80;;;;;;5071972;28;20043;-74
2024/02/20 04:48:08;;;;;;;9.27;5.30;;;3.60;71.80;;;;;;5073438;28;20081;-70
2024/02/20 04:50:34;;;;;;;5.97;3.83;;;3.70;72.00;;;;;;5072470;28;20115;-73
2024/02/20 04:53:00;;;;;;;8.90;4.10;;;3.80;71.70;;;;;;5073212;28;20028;-71
2024/02/20 04:55:26;;;;;;;7.05;4.38;;;3.80;71.50;;;;;;5071843;28;20086;-71
2024/02/20 04:57:53;;;;;;;8.18;4.20;;;3.80;71.40;;;;;;5070496;28;20033;-71
2024/02/20 05:00:19;;;;;;;8.32;3.78;;;3.90;71.30;;;;;;5054204;28;20374;-74
2024/02/20 05:02:46;;;;;;;9.40;3.90;;;3.90;70.60;;;;;;5071901;28;20043;-74
2024/02/20 05:05:12;;;;;;;;;;;4.00;70.60;;;;;;5073405;28;20529;-73
2024/02/20 05:07:39;;;;;;;6.32;3.22;;;4.00;71.00;;;;;;5071602;28;19927;-73
2024/02/20 05:10:07;;;;;;;4.65;2.97;;;4.10;70.70;;;;;;5070769;28;20086;-71
2024/02/20 05:12:36;;;;;;;13.48;6.68;;;4.10;70.60;;;;;;5071447;28;20036;-74
2024/02/20 05:15:03;;;;;;;5.43;3.72;;;4.10;70.50;;;;;;5071468;28;20063;-70
2024/02/20 05:17:29;;;;;;;6.13;3.30;;;4.20;70.30;;;;;;5071349;28;20122;-71
2024/02/20 05:19:55;;;;;;;5.65;3.85;;;4.20;70.90;;;;;;5071334;28;20033;-73
2024/02/20 05:22:21;;;;;;;5.72;3.38;;;4.20;70.70;;;;;;5071974;28;20044;-71
2024/02/20 05:24:47;;;;;;;9.98;5.15;;;4.10;70.80;;;;;;5071221;28;20028;-71
2024/02/20 05:27:13;;;;;;;8.38;4.65;;;4.10;71.70;;;;;;5072170;28;20076;-70
2024/02/20 05:29:40;;;;;;;6.88;3.60;;;4.20;70.70;;;;;;5071078;28;20503;-71
2024/02/20 05:32:06;;;;;;;6.88;4.45;;;4.20;70.60;;;;;;5053743;28;20101;-74
2024/02/20 05:34:32;;;;;;;;;;;4.20;70.60;;;;;;5071943;28;20481;-71
2024/02/20 05:36:59;;;;;;;9.40;4.78;;;4.20;70.50;;;;;;5070962;28;19921;-73
2024/02/20 05:39:25;;;;;;;15.18;4.80;;;4.20;70.10;;;;;;5072368;28;20035;-70
2024/02/20 05:41:51;;;;;;;9.00;5.28;;;4.30;70.10;;;;;;5071400;28;20417;-71
2024/02/20 05:44:17;;;;;;;6.53;3.58;;;4.30;70.00;;;;;;5070493;28;20029;-71
2024/02/20 05:46:43;;;;;;;8.13;4.38;;;4.40;70.00;;;;;;5070447;28;20051;-71
2024/02/20 05:49:09;;;;;;;11.32;7.78;;;4.40;70.00;;;;;;5071972;28;20025;-70
2024/02/20 05:51:35;;;;;;;7.50;5.50;;;4.50;70.10;;;;;;5070174;28;20056;-71
2024/02/20 05:54:02;;;;;;;8.52;4.97;;;4.50;70.10;;;;;;5070586;28;20450;-74
2024/02/20 05:56:28;;;;;;;9.85;4.07;;;4.50;70.20;;;;;;5071780;28;20036;-74
2024/02/20 05:58:54;;;;;;;6.47;3.47;;;4.50;70.10;;;;;;5070278;28;20028;-74
2024/02/20 06:01:20;;;;;;;10.00;6.07;;;4.50;70.10;;;;;;5069706;28;20465;-71
2024/02/20 06:03:46;;;;;;;6.03;2.85;;;4.50;70.30;;;;;;5071535;28;20047;-71
2024/02/20 06:06:13;;;;;;;9.30;5.93;;;4.50;70.10;;;;;;5070265;28;20097;-74
2024/02/20 06:08:57;;;;;;;6.35;4.47;;;4.60;70.10;;;;;;5071878;28;20043;-73
2024/02/20 06:11:25;;;;;;;6.88;4.47;;;4.60;70.00;;;;;;5069725;28;20391;-74
2024/02/20 06:13:51;;;;;;;4.45;3.15;;;4.60;70.00;;;;;;5071544;28;20028;-74
2024/02/20 06:16:17;;;;;;;8.02;4.30;;;4.60;70.30;;;;;;5071425;28;20028;-74
2024/02/20 06:18:43;;;;;;;10.73;3.80;;;4.50;70.20;;;;;;5070383;28;20444;-70
2024/02/20 06:21:10;;;;;;;7.10;4.07;;;4.60;70.10;;;;;;5071074;28;20094;-71
2024/02/20 06:23:37;;;;;;;8.20;5.88;;;4.60;69.50;;;;;;5071727;28;20103;-74
2024/02/20 06:26:05;;;;;;;8.20;5.20;;;4.60;70.10;;;;;;5071218;28;20033;-74
2024/02/20 06:28:32;;;;;;;7.90;4.95;;;4.40;70.40;;;;;;5053201;28;20064;-73
2024/02/20 06:30:59;;;;;;;7.90;4.50;;;4.40;70.80;;;;;;5069551;28;20060;-73
2024/02/20 06:33:26;;;;;;;4.93;3.05;;;4.30;71.10;;;;;;5071869;28;20035;-70
2024/02/20 06:35:52;;;;;;;9.23;4.45;;;4.30;71.10;;;;;;5069788;28;20123;-74
2024/02/20 06:38:18;;;;;;;8.68;4.85;;;4.30;71.00;;;;;;5071620;28;20044;-74
2024/02/20 06:40:44;;;;;;;;;;;4.30;71.00;;;;;;5071457;28;20464;-73
2024/02/20 06:43:10;;;;;;;9.98;5.07;;;4.30;71.00;;;;;;5071520;28;20011;-74
2024/02/20 06:45:36;;;;;;;13.57;5.43;;;4.30;70.80;;;;;;5071412;28;20575;-72
2024/02/20 06:48:03;;;;;;;8.55;5.07;;;4.30;70.80;;;;;;5071378;28;20053;-71
2024/02/20 06:50:29;;;;;;;10.13;5.30;;;4.40;69.90;;;;;;5069129;28;20032;-74
2024/02/20 06:52:55;;;;;;;13.15;7.20;;;4.50;70.40;;;;;;5069701;28;20554;-71
2024/02/20 06:55:21;;;;;;;8.57;6.07;;;4.60;70.30;;;;;;5069798;28;20041;-74
2024/02/20 06:57:48;;;;;;;7.60;5.13;;;4.70;70.20;;;;;;5069875;28;20484;-71
2024/02/20 07:03:00;;;;;;;9.30;3.92;;;4.80;70.00;;;;;;5070219;28;20379;-74
2024/02/20 07:05:26;;;;;;;5.47;4.32;;;4.80;70.20;;;;;;5071761;28;20036;-71
2024/02/20 07:07:53;;;;;;;7.32;5.63;;;5.00;70.30;;;;;;5071633;28;20051;-71
2024/02/20 07:10:19;;;;;;;6.28;3.53;;;4.90;70.70;;;;;;5069260;28;20095;-74
2024/02/20 07:12:45;;;;;;;7.65;4.70;;;4.80;71.50;;;;;;5070673;28;20060;-73
2024/02/20 07:15:12;;;;;;;8.18;5.30;;;4.80;71.80;;;;;;5052837;28;20036;-73
2024/02/20 07:17:38;;;;;;;6.28;4.22;;;4.70;72.10;;;;;;5071141;28;20048;-71
2024/02/20 07:20:05;;;;;;;8.32;4.78;;;4.80;72.00;;;;;;5070268;28;20090;-73
2024/02/20 07:22:32;;;;;;;7.15;4.50;;;4.80;71.80;;;;;;5074203;28;20532;-72
2024/02/20 07:24:59;;;;;;;13.65;4.38;;;4.90;71.60;;;;;;5073435;28;20021;-74
2024/02/20 07:27:25;;;;;;;7.82;4.25;;;4.90;71.30;;;;;;5073423;28;20044;-73
2024/02/20 07:29:51;;;;;;;;;;;5.00;71.20;;;;;;5073501;28;20025;-70
2024/02/20 07:32:17;;;;;;;10.63;4.90;;;5.00;71.30;;;;;;5072738;28;19966;-70
2024/02/20 07:37:31;;;;;;;8.13;5.30;;;5.10;70.90;;;;;;5074879;28;20102;-73
2024/02/20 07:39:57;;;;;;;18.73;4.18;;;5.20;71.30;;;;;;5073166;28;20032;-70
2024/02/20 07:42:23;;;;;;;6.75;2.95;;;5.30;71.30;;;;;;5072443;28;20052;-71
2024/02/20 07:44:49;;;;;;;6.90;3.50;;;5.40;71.30;;;;;;5074293;28;20404;-73
2024/02/20 07:47:15;;;;;;;;;;;5.50;71.20;;;;;;5075078;28;20473;-73
2024/02/20 07:49:41;;;;;;;5.82;3.33;;;5.50;71.10;;;;;;5074571;28;19922;-73
2024/02/20 07:52:08;;;;;;;7.18;5.45;;;5.60;70.80;;;;;;5073855;28;20048;-70
2024/02/20 07:54:34;;;;;;;;;;;5.70;70.70;;;;;;5074832;28;20040;-72
2024/02/20 07:57:00;;;;;;;6.65;4.05;;;5.80;70.60;;;;;;5074098;28;20293;-71
2024/02/20 07:59:26;;;;;;;6.03;3.17;;;5.90;71.00;;;;;;5073710;28;20039;-73
2024/02/20 08:01:52;;;;;;;18.05;5.07;;;6.00;71.00;;;;;;5072084;28;20481;-74
2024/02/20 08:04:20;;;;;;;5.28;3.20;;;6.10;71.70;;;;;;5055874;28;20096;-74
2024/02/20 08:06:46;;;;;;;20.40;4.97;;;6.10;71.30;;;;;;5072922;28;20420;-70
2024/02/20 08:09:12;;;;;;;7.78;5.25;;;6.30;71.30;;;;;;5072557;28;20040;-73
2024/02/20 08:11:38;;;;;;;13.70;4.28;;;6.40;71.20;;;;;;5055418;28;20040;-74
2024/02/20 08:14:04;;;;;;;6.50;4.18;;;6.50;71.20;;;;;;5073856;28;20115;-70
2024/02/20 08:16:31;;;;;;;8.00;4.03;;;6.60;70.80;;;;;;5072765;28;20404;-74
2024/02/20 08:18:57;;;;;;;7.43;4.18;;;6.70;70.70;;;;;;5073824;28;20016;-71
2024/02/20 08:21:23;;;;;;;4.30;2.80;;;6.90;70.30;;;;;;5073054;28;20032;-74
2024/02/20 08:23:50;;;;;;;5.80;3.47;;;7.10;70.00;;;;;;5073433;28;20033;-71
2024/02/20 08:26:16;;;;;;;;;;;7.30;69.70;;;;;;5072826;28;20041;-74
2024/02/20 08:28:42;;;;;;;4.60;2.97;;;7.50;69.50;;;;;;5073375;28;19927;-70
2024/02/20 08:31:08;;;;;;;6.68;4.30;;;7.70;68.90;;;;;;5072899;28;20497;-73
2024/02/20 08:33:36;;;;;;;4.10;2.33;;;8.20;67.80;;;;;;5072262;28;20041;-70
2024/02/20 08:36:02;;;;;;;5.65;2.85;;;9.70;64.60;;;;;;5072199;28;20037;-74
2024/02/20 08:38:29;;;;;;;5.82;2.10;;;11.00;60.00;;;;;;5072465;28;20039;-73
2024/02/20 08:40:55;;;;;;;4.13;2.33;;;12.30;58.10;;;;;;5071410;28;20040;-71
2024/02/20 08:43:21;;;;;;;3.90;2.40;;;13.40;55.30;;;;;;5072176;28;20041;-71
2024/02/20 08:45:47;;;;;;;4.78;1.95;;;14.20;53.20;;;;;;5071935;28;20042;-71
2024/02/20 08:48:13;;;;;;;3.20;2.25;;;15.30;52.00;;;;;;5073004;28;20040;-71
2024/02/20 08:50:39;;;;;;;5.07;2.45;;;16.30;49.00;;;;;;5072599;28;20043;-74
2024/02/20 08:53:10;;;;;;;1.55;1.08;;;17.20;46.70;;;;;;5055117;28;20036;-72
2024/02/20 08:55:38;;;;;;;2.70;1.77;;;18.10;44.20;;;;;;5071911;28;20127;-71
2024/02/20 08:58:04;;;;;;;3.72;2.08;;;19.00;41.20;;;;;;5071586;28;20075;-74
2024/02/20 09:00:30;;;;;;;;;;;19.70;39.50;;;;;;5072887;28;20039;-72
2024/02/20 09:02:58;;;;;;;2.50;2.03;;;20.60;37.10;;;;;;5071323;28;19966;-74
2024/02/20 09:05:24;;;;;;;2.85;1.77;;;21.20;35.50;;;;;;5071521;28;20478;-71
2024/02/20 09:07:50;;;;;;;2.78;2.10;;;21.90;34.10;;;;;;5072948;28;20040;-74
2024/02/20 09:10:16;;;;;;;4.28;1.83;;;22.40;32.60;;;;;;5072034;28;20102;-71
2024/02/20 09:12:42;;;;;;;;;;;22.50;32.80;;;;;;5073518;28;20095;-71
2024/02/20 09:15:09;;;;;;;2.63;1.40;;;23.10;31.30;;;;;;5072402;28;19928;-71
2024/02/20 09:17:35;;;;;;;4.90;2.33;;;23.20;30.20;;;;;;5072826;28;20262;-74
2024/02/20 09:20:01;;;;;;;;;;;22.80;30.40;;;;;;5073004;28;20055;-74
2024/02/20 09:22:27;;;;;;;5.85;3.33;;;23.20;29.70;;;;;;5070668;28;20094;-74
2024/02/20 09:24:53;;;;;;;8.25;4.53;;;23.30;29.00;;;;;;5071353;28;20456;-72
2024/02/20 09:27:20;;;;;;;2.45;1.65;;;23.40;28.90;;;;;;5072523;28;20040;-74
2024/02/20 09:29:46;;;;;;;12.95;3.10;;;23.80;28.20;;;;;;5071177;28;20031;-74
2024/02/20 09:32:13;;;;;;;;;;;24.00;27.90;;;;;;5072703;28;20049;-71
2024/02/20 09:34:39;;;;;;;2.35;1.65;;;23.60;27.60;;;;;;5072389;28;19924;-74
2024/02/20 09:37:05;;;;;;;3.95;2.10;;;23.60;28.20;;;;;;5072466;28;20047;-74
2024/02/20 09:39:31;;;;;;;;;;;23.60;28.00;;;;;;5072668;28;20032;-72
2024/02/20 09:42:06;;;;;;;3.33;1.88;;;23.50;27.40;;;;;;5070049;28;20276;-74
2024/02/20 09:44:36;;;;;;;1.75;1.40;;;23.10;27.90;;;;;;5070425;28;20040;-74
2024/02/20 09:47:03;;;;;;;1.75;1.42;;;22.80;28.50;;;;;;5072091;28;20180;-74
2024/02/20 09:49:30;;;;;;;2.10;1.38;;;22.40;28.70;;;;;;5070840;28;20399;-74
2024/02/20 09:51:58;;;;;;;1.45;0.85;;;22.00;28.60;;;;;;5053166;28;20043;-74
2024/02/20 09:54:26;;;;;;;1.27;0.57;;;22.10;27.80;;;;;;5070603;28;20028;-74
2024/02/20 09:56:55;;;;;;;1.00;0.52;;;22.80;26.40;;;;;;5053741;28;20044;-74
2024/02/20 09:59:21;;;;;;;0.20;0.20;;;22.40;25.50;;;;;;5070393;28;20107;-74
2024/02/20 10:01:47;;;;;;;;;;;21.90;26.00;;;;;;5070351;28;20062;-71
2024/02/20 10:04:14;;;;;;;1.90;0.57;;;21.70;26.00;;;;;;5053614;28;20182;-71
2024/02/20 10:06:41;;;;;;;0.63;0.57;;;22.10;26.60;;;;;;5071779;28;20032;-71
2024/02/20 10:09:08;;;;;;;0.85;0.60;;;21.80;25.80;;;;;;5070160;28;20307;-71
2024/02/20 10:11:53;;;;;;;1.13;0.90;;;20.90;27.00;;;;;;5071043;28;20043;-74
2024/02/20 10:14:27;;;;;;;0.28;0.25;;;20.60;27.80;;;;;;5071609;28;20033;-71
2024/02/20 10:17:14;;;;;;;0.55;0.45;;;20.90;26.60;;;;;;5071671;28;20078;-74
2024/02/20 10:19:41;;;;;;;0.57;0.43;;;20.50;26.90;;;;;;5071564;28;20385;-71
2024/02/20 10:22:07;;;;;;;0.60;0.57;;;20.40;27.40;;;;;;5069354;28;20041;-71
2024/02/20 10:24:33;;;;;;;0.10;0.10;;;20.30;27.20;;;;;;5070064;28;20040;-74
2024/02/20 10:26:58;;;;;;;;;;;20.00;27.20;;;;;;5070798;28;20059;-71
2024/02/20 10:29:28;;;;;;;0.38;0.30;;;19.80;27.80;;;;;;5070001;28;19912;-71
2024/02/20 10:31:54;;;;;;;1.10;0.47;;;19.40;28.00;;;;;;5070896;28;20037;-71
2024/02/20 10:34:20;;;;;;;0.17;0.17;;;19.00;28.30;;;;;;5071255;28;20024;-74
2024/02/20 10:36:46;;;;;;;;;;;19.20;28.70;;;;;;5071723;28;20111;-74
2024/02/20 10:39:12;;;;;;;0.40;0.40;;;19.30;28.70;;;;;;5053049;28;19916;-70
2024/02/20 10:41:39;;;;;;;0.55;0.35;;;19.40;29.10;;;;;;5052513;28;20040;-71
2024/02/20 10:44:05;;;;;;;0.32;0.17;;;19.20;28.10;;;;;;5069822;28;20067;-74
2024/02/20 10:46:36;;;;;;;;;;;19.00;28.00;;;;;;5070578;28;20512;-72
2024/02/20 10:49:24;;;;;;;1.30;0.63;;;19.10;27.90;;;;;;5053183;28;19924;-74
2024/02/20 10:51:51;;;;;;;;;;;20.30;26.90;;;;;;5053197;28;20516;-71
2024/02/20 10:54:18;;;;;;;1.20;0.40;;;20.30;26.10;;;;;;5069893;28;19973;-71
2024/02/20 10:56:45;;;;;;;1.02;0.73;;;20.20;26.20;;;;;;5074285;28;20104;-71
2024/02/20 10:59:11;;;;;;;1.17;0.63;;;20.10;25.90;;;;;;5073810;28;20025;-73
2024/02/20 11:01:39;;;;;;;0.82;0.75;;;20.90;26.10;;;;;;5073692;28;20089;-71
2024/02/20 11:04:07;;;;;;;0.90;0.52;;;21.40;25.20;;;;;;5073664;28;20090;-71
2024/02/20 11:06:34;;;;;;;2.10;1.15;;;21.60;25.90;;;;;;5075224;28;20428;-71
2024/02/20 11:09:19;;;;;;;0.85;0.40;;;21.60;24.50;;;;;;5074904;28;20476;-75
2024/02/20 11:11:46;;;;;;;0.55;0.43;;;22.00;25.00;;;;;;5072966;28;20067;-71
2024/02/20 11:14:23;;;;;;;1.02;0.63;;;22.60;23.70;;;;;;5074957;28;20036;-74
2024/02/20 11:16:49;;;;;;;1.85;0.80;;;22.50;24.30;;;;;;5073759;28;20044;-71
2024/02/20 11:19:25;;;;;;;0.20;0.20;;;22.30;23.80;;;;;;5074882;28;20036;-74
2024/02/20 11:21:51;;;;;;;0.88;0.52;;;22.00;23.90;;;;;;5072961;28;20044;-74
2024/02/20 11:24:18;;;;;;;;;;;21.80;24.80;;;;;;5057218;28;20036;-74
2024/02/20 11:29:28;;;;;;;1.95;0.98;;;23.40;23.00;;;;;;5073406;28;20047;-74
2024/02/20 11:31:54;;;;;;;0.88;0.65;;;23.50;21.90;;;;;;5073019;28;20043;-74
2024/02/20 11:34:25;;;;;;;;;;;23.40;22.10;;;;;;5073941;28;20024;-74
2024/02/20 11:36:51;;;;;;;1.05;0.75;;;23.50;22.20;;;;;;5074510;28;20314;-74
2024/02/20 11:39:17;;;;;;;;;;;24.20;22.20;;;;;;5073820;28;20436;-74
2024/02/20 11:41:44;;;;;;;0.82;0.82;;;24.20;22.00;;;;;;5073717;28;19927;-70
2024/02/20 11:44:11;;;;;;;0.25;0.25;;;23.40;22.40;;;;;;5056558;28;20116;-71
2024/02/20 11:46:43;;;;;;;0.95;0.28;;;22.80;22.70;;;;;;5072984;28;20041;-71
2024/02/20 11:49:20;;;;;;;0.55;0.40;;;22.80;23.80;;;;;;5072793;28;20067;-74
2024/02/20 11:51:46;;;;;;;0.95;0.52;;;23.40;22.80;;;;;;5072178;28;20047;-71
2024/02/20 11:54:12;;;;;;;;;;;23.70;22.50;;;;;;5075056;28;20435;-71
2024/02/20 11:56:40;;;;;;;0.60;0.40;;;24.10;22.70;;;;;;5074217;28;19950;-74
2024/02/20 11:59:08;;;;;;;0.38;0.30;;;24.00;22.40;;;;;;5073770;28;20439;-72
2024/02/20 12:01:35;;;;;;;0.30;0.30;;;24.00;22.70;;;;;;5055713;28;20044;-71
2024/02/20 12:04:39;;;;;;;2.20;1.38;;;25.10;21.40;;;;;;5072373;28;20041;-71
2024/02/20 12:07:43;;;;;;;0.60;0.40;;;27.00;19.20;;;;;;5071781;28;20106;-74
2024/02/20 12:10:17;;;;;;;1.30;0.90;;;28.40;17.10;;;;;;5073509;28;20493;-74
2024/02/20 12:12:44;;;;;;;0.75;0.57;;;27.90;16.80;;;;;;5072719;28;20028;-74
2024/02/20 12:17:55;;;;;;;1.27;0.73;;;27.40;17.40;;;;;;5072546;28;20043;-71
2024/02/20 12:20:21;;;;;;;;;;;26.10;18.80;;;;;;5072404;28;20058;-71
2024/02/20 12:22:59;;;;;;;1.42;1.08;;;25.90;19.30;;;;;;5072425;28;19920;-71
2024/02/20 12:25:25;;;;;;;1.05;0.75;;;26.60;18.30;;;;;;5072525;28;20138;-74
2024/02/20 12:27:53;;;;;;;0.55;0.55;;;27.00;19.10;;;;;;5072243;28;20036;-72
2024/02/20 12:30:19;;;;;;;0.35;0.35;;;27.80;17.70;;;;;;5072552;28;20546;-74
2024/02/20 12:32:45;;;;;;;0.25;0.25;;;29.60;16.50;;;;;;5071948;28;20028;-71
2024/02/20 12:35:12;;;;;;;0.30;0.30;;;30.80;14.90;;;;;;5055139;28;20029;-73
2024/02/20 12:37:39;;;;;;;0.43;0.43;;;30.00;15.10;;;;;;5055662;28;20032;-71
2024/02/20 12:40:08;;;;;;;1.08;0.73;;;30.30;14.60;;;;;;5071670;28;20441;-74
2024/02/20 12:42:36;;;;;;;0.63;0.45;;;31.10;14.10;;;;;;5073497;28;20381;-71
2024/02/20 12:45:03;;;;;;;0.40;0.20;;;32.50;12.50;;;;;;5072476;28;20024;-72
2024/02/20 12:47:29;;;;;;;0.28;0.28;;;33.60;11.60;;;;;;5085461;28;20043;-71
2024/02/20 12:49:55;;;;;;;0.13;0.13;;;34.50;11.80;;;;;;5093038;28;20028;-74
2024/02/20 12:52:21;;;;;;;0.95;0.65;;;34.40;11.30;;;;;;5092912;28;20063;-71
2024/02/20 12:54:47;;;;;;;0.45;0.40;;;34.60;11.30;;;;;;5093307;28;20444;-74
2024/02/20 12:57:13;;;;;;;0.82;0.77;;;35.30;11.10;;;;;;5093191;28;20055;-74
2024/02/20 12:59:39;;;;;;;0.88;0.55;;;36.60;10.20;;;;;;5093029;28;20481;-72
2024/02/20 13:02:05;;;;;;;0.25;0.25;;;38.00;9.20;;;;;;5090930;28;20074;-71
2024/02/20 13:04:31;;;;;;;4.05;0.73;;;38.80;8.20;;;;;;5081647;28;20044;-71
2024/02/20 13:06:57;;;;;;;0.50;0.47;;;38.40;8.90;;;;;;5091828;28;20076;-73
2024/02/20 13:09:24;;;;;;;0.60;0.50;;;39.20;9.00;;;;;;5091463;28;20118;-71